Terminal Aerodrome Forecast
Issued by NWS Spokane, WA

Home | Current Version | Previous Version | Text Only | Print | Product List | Glossary On
Versions: 1 2 3 4 5 6 7 8 9 10 11 12 13 14 15 16 17 18 19 20 21 22 23 24 25 26 27 28 29 30 31 32 33 34 35 36 37 38 39 40 41 42 43 44 45 46 47
024
FTUS46 KOTX 131136
TAFGEG
TAF
KGEG 131136Z 1312/1412 23012KT P6SM VCSH BKN020 BKN060
     FM131600 23016G24KT P6SM VCSH SCT020 BKN070
     FM140100 21012G16KT 6SM -RA BKN019 OVC025=

USA.gov is the U.S. government's official web portal to all federal, state and local government web resources and services.